Time;durP1;ratioP1;P1;durP2;ratioP2;P2;SDS_P1;SDS_P2;PMS_P1;PMS_P2;Temp;Humidity;BMP_temperature;BMP_pressure;BME280_temperature;BME280_humidity;BME280_pressure;Samples;Min_cycle;Max_cycle;Signal;HPM_P1;HPM_P2
2022/01/19 00:04:28;;;;;;;10.07;5.23;;;2.90;99.90;;;;;;10043095;29;20239;-75
2022/01/19 00:09:50;;;;;;;9.90;4.70;;;3.00;99.90;;;;;;10042904;29;20227;-81
2022/01/19 00:15:13;;;;;;;10.03;5.20;;;3.00;99.90;;;;;;10042804;29;20324;-76
2022/01/19 00:20:37;;;;;;;12.40;4.47;;;3.00;99.90;;;;;;10027224;29;20235;-77
2022/01/19 00:26:00;;;;;;;13.90;4.63;;;3.00;99.90;;;;;;10043281;29;20434;-77
2022/01/19 00:31:22;;;;;;;6.67;4.10;;;3.10;99.90;;;;;;10014224;29;20215;-76
2022/01/19 00:36:44;;;;;;;11.97;3.93;;;3.00;99.90;;;;;;10013768;29;20208;-80
2022/01/19 00:42:06;;;;;;;7.23;3.83;;;3.00;99.90;;;;;;10013610;29;20302;-80
2022/01/19 00:47:28;;;;;;;9.10;3.53;;;3.00;99.90;;;;;;9998027;29;20233;-79
2022/01/19 00:52:51;;;;;;;11.87;3.70;;;3.10;99.90;;;;;;9990896;29;20232;-76
2022/01/19 00:58:13;;;;;;;8.33;4.00;;;3.10;99.90;;;;;;10002993;29;20230;-81
2022/01/19 01:03:35;;;;;;;13.23;4.40;;;3.10;99.90;;;;;;10028403;29;20594;-77
2022/01/19 01:08:57;;;;;;;14.53;4.30;;;3.20;99.90;;;;;;10041185;29;20252;-77
2022/01/19 01:19:41;;;;;;;7.60;3.33;;;3.20;99.90;;;;;;10025557;29;20290;-77
2022/01/19 01:25:04;;;;;;;10.70;3.67;;;3.20;99.90;;;;;;10004105;29;20204;-80
2022/01/19 01:30:29;;;;;;;9.10;4.13;;;3.20;99.90;;;;;;9975386;29;20443;-79
2022/01/19 01:35:51;;;;;;;6.83;3.63;;;3.20;99.90;;;;;;9977679;29;20200;-77
2022/01/19 01:41:16;;;;;;;9.33;3.87;;;3.20;99.90;;;;;;9990137;29;20273;-78
2022/01/19 01:46:56;;;;;;;5.67;3.30;;;3.20;99.90;;;;;;9974903;29;20241;-77
2022/01/19 01:58:08;;;;;;;8.17;3.17;;;3.20;99.90;;;;;;10040444;29;20252;-79
2022/01/19 02:03:38;;;;;;;10.30;4.90;;;3.30;99.90;;;;;;10011712;29;20443;-82
2022/01/19 02:09:10;;;;;;;7.80;4.50;;;3.30;99.90;;;;;;10011704;29;20212;-80
2022/01/19 02:26:00;;;;;;;6.23;4.17;;;3.20;99.90;;;;;;10009713;29;20212;-82
2022/01/19 02:43:06;;;;;;;9.57;4.63;;;3.30;99.90;;;;;;9878913;30;20325;-81
2022/01/19 02:54:20;;;;;;;8.13;5.00;;;3.20;99.90;;;;;;9881025;30;20224;-78
2022/01/19 03:10:49;;;;;;;12.53;5.20;;;3.20;99.90;;;;;;9925486;29;20451;-77
2022/01/19 03:16:12;;;;;;;10.37;5.00;;;3.20;99.90;;;;;;10044932;29;20196;-77
2022/01/19 03:21:34;;;;;;;9.33;5.03;;;3.20;99.90;;;;;;10019919;29;20231;-82
2022/01/19 03:26:56;;;;;;;8.77;5.40;;;3.20;99.90;;;;;;10045552;29;20509;-77
2022/01/19 03:32:28;;;;;;;7.20;5.50;;;3.20;99.90;;;;;;10040689;29;20200;-81
2022/01/19 03:37:51;;;;;;;10.17;6.57;;;3.20;99.90;;;;;;10032027;29;20196;-81
2022/01/19 03:43:13;;;;;;;8.43;5.90;;;3.20;99.90;;;;;;9978253;29;20244;-81
2022/01/19 03:49:12;;;;;;;11.67;6.00;;;3.20;99.90;;;;;;10012553;29;20210;-81
2022/01/19 03:54:38;;;;;;;8.70;6.23;;;3.10;99.90;;;;;;10031117;29;20203;-80
2022/01/19 04:00:00;;;;;;;40.70;22.97;;;3.10;99.90;;;;;;10015103;29;20430;-81
2022/01/19 04:05:53;;;;;;;39.60;23.50;;;3.10;99.90;;;;;;10003416;29;20201;-76
2022/01/19 04:11:18;;;;;;;55.17;28.23;;;3.00;99.90;;;;;;10030050;29;20217;-76
2022/01/19 04:16:40;;;;;;;74.00;30.07;;;3.10;99.90;;;;;;10027459;29;20467;-76
2022/01/19 04:22:08;;;;;;;19.43;12.30;;;3.10;99.90;;;;;;10030024;29;20231;-76
2022/01/19 04:44:26;;;;;;;20.57;9.30;;;3.00;99.90;;;;;;10028668;29;20225;-80
2022/01/19 05:18:18;;;;;;;10.93;8.43;;;2.90;99.90;;;;;;9962833;29;20209;-79
2022/01/19 05:23:41;;;;;;;15.87;9.07;;;2.80;99.90;;;;;;9962574;29;20272;-80
2022/01/19 05:29:03;;;;;;;11.47;8.27;;;2.80;99.90;;;;;;9950291;29;20232;-81
2022/01/19 05:34:26;;;;;;;12.87;7.87;;;2.90;99.90;;;;;;9967551;29;20536;-76
2022/01/19 05:39:58;;;;;;;10.83;8.17;;;2.80;99.90;;;;;;10003278;29;20202;-80
2022/01/19 05:45:37;;;;;;;16.70;8.67;;;2.80;99.90;;;;;;9974777;29;20264;-80
2022/01/19 05:51:09;;;;;;;12.43;8.37;;;2.80;99.90;;;;;;9998894;29;20495;-77
2022/01/19 05:56:33;;;;;;;13.00;8.83;;;2.80;99.90;;;;;;10035064;29;20277;-76
2022/01/19 06:02:13;;;;;;;12.53;9.83;;;2.70;99.90;;;;;;9996896;29;20227;-76
2022/01/19 06:07:45;;;;;;;16.13;9.40;;;2.70;99.90;;;;;;10007514;29;20312;-76
2022/01/19 06:13:18;;;;;;;12.70;8.97;;;2.70;99.90;;;;;;10007924;29;20393;-75
2022/01/19 06:18:42;;;;;;;12.03;8.50;;;2.60;99.90;;;;;;10034197;29;20199;-81
2022/01/19 06:24:06;;;;;;;10.87;7.97;;;2.60;99.90;;;;;;10030888;29;20232;-80
2022/01/19 06:29:28;;;;;;;12.93;8.43;;;2.70;99.90;;;;;;10021698;29;20368;-76
2022/01/19 06:34:50;;;;;;;12.57;8.50;;;2.70;99.90;;;;;;9993182;29;20207;-79
2022/01/19 06:40:19;;;;;;;16.23;10.10;;;2.70;99.90;;;;;;9992799;29;20215;-76
2022/01/19 06:45:41;;;;;;;15.83;9.50;;;2.70;99.90;;;;;;9992332;29;20251;-80
2022/01/19 06:51:21;;;;;;;12.50;9.50;;;2.70;99.90;;;;;;10015388;29;20469;-80
2022/01/19 06:56:48;;;;;;;16.50;9.87;;;2.60;99.90;;;;;;10030796;29;20795;-79
2022/01/19 07:02:18;;;;;;;13.47;9.80;;;2.60;99.90;;;;;;9979397;29;20228;-78
2022/01/19 07:07:54;;;;;;;14.37;10.03;;;2.60;99.90;;;;;;10009779;29;20208;-82
2022/01/19 07:13:17;;;;;;;14.20;9.93;;;2.60;99.90;;;;;;10007201;29;20457;-78
2022/01/19 07:18:40;;;;;;;21.37;11.23;;;2.60;99.90;;;;;;10006939;29;20216;-81
2022/01/19 07:24:03;;;;;;;18.23;10.87;;;2.60;99.90;;;;;;10006561;29;20239;-78
2022/01/19 07:29:25;;;;;;;15.87;10.13;;;2.60;99.90;;;;;;10007093;29;20227;-82
2022/01/19 07:34:50;;;;;;;21.20;12.17;;;2.60;99.90;;;;;;9978432;29;20494;-79
2022/01/19 07:40:13;;;;;;;14.13;9.43;;;2.60;99.90;;;;;;9978416;29;20436;-79
2022/01/19 07:45:36;;;;;;;26.17;11.30;;;2.70;99.90;;;;;;9980625;29;20608;-77
2022/01/19 07:51:10;;;;;;;14.57;9.80;;;2.70;99.90;;;;;;10014505;29;20215;-78
2022/01/19 07:56:38;;;;;;;20.63;10.77;;;2.80;99.90;;;;;;10017630;29;20200;-78
2022/01/19 08:02:33;;;;;;;19.90;11.60;;;2.70;99.90;;;;;;9927912;30;20240;-79
2022/01/19 08:08:14;;;;;;;22.27;11.90;;;2.70;99.90;;;;;;9927724;30;20619;-80
2022/01/19 08:13:37;;;;;;;18.07;11.97;;;2.70;99.90;;;;;;9927974;30;20218;-89
2022/01/19 08:19:02;;;;;;;17.37;11.67;;;2.80;99.90;;;;;;9893474;29;20407;-85
2022/01/19 08:24:26;;;;;;;18.53;10.50;;;2.90;99.90;;;;;;9883050;30;20288;-81
2022/01/19 08:29:50;;;;;;;22.00;13.20;;;2.90;99.90;;;;;;9898411;30;20935;-83
2022/01/19 08:35:18;;;;;;;15.00;9.80;;;2.90;99.90;;;;;;9915252;29;20214;-85
2022/01/19 08:41:00;;;;;;;23.77;13.23;;;2.90;99.90;;;;;;9886007;30;20219;-80
2022/01/19 08:46:24;;;;;;;19.33;13.03;;;2.90;99.90;;;;;;9892816;30;20247;-82
2022/01/19 08:52:06;;;;;;;13.43;9.87;;;2.90;99.90;;;;;;9913957;30;20297;-80
2022/01/19 08:57:35;;;;;;;17.60;9.97;;;3.00;99.90;;;;;;9918250;30;20272;-77
2022/01/19 09:02:57;;;;;;;19.73;10.30;;;3.00;99.90;;;;;;9921171;30;20254;-77
2022/01/19 09:08:20;;;;;;;15.20;9.97;;;3.00;99.90;;;;;;9908418;30;20243;-75
2022/01/19 09:13:44;;;;;;;24.73;13.20;;;3.10;99.90;;;;;;9883681;30;20229;-77
2022/01/19 09:19:08;;;;;;;23.70;13.03;;;3.10;99.90;;;;;;9983167;29;20212;-81
2022/01/19 09:24:30;;;;;;;32.73;19.30;;;3.10;99.90;;;;;;9958474;29;20425;-76
2022/01/19 09:29:53;;;;;;;27.77;14.23;;;3.10;99.90;;;;;;10015701;29;20253;-79
2022/01/19 09:35:23;;;;;;;26.53;16.90;;;3.20;99.90;;;;;;10007820;29;20208;-80
2022/01/19 09:40:45;;;;;;;24.93;15.50;;;3.20;99.90;;;;;;9982176;29;20213;-77
2022/01/19 09:46:07;;;;;;;29.00;17.97;;;3.20;99.90;;;;;;9970536;29;20339;-77
2022/01/19 09:51:29;;;;;;;26.80;16.47;;;3.20;99.90;;;;;;9970194;29;20398;-80
2022/01/19 09:56:53;;;;;;;30.57;17.17;;;3.20;99.90;;;;;;9982998;29;20213;-78
2022/01/19 10:02:16;;;;;;;25.87;16.00;;;3.20;99.90;;;;;;9983399;29;20301;-79
2022/01/19 10:07:38;;;;;;;25.00;14.70;;;3.30;99.90;;;;;;9986761;29;20210;-80
2022/01/19 10:18:43;;;;;;;29.03;15.87;;;3.30;99.90;;;;;;9981641;29;20207;-78
2022/01/19 10:24:12;;;;;;;32.97;18.20;;;3.20;99.90;;;;;;10005982;29;20253;-83
2022/01/19 10:29:33;;;;;;;27.20;15.73;;;3.30;99.90;;;;;;10006443;29;20208;-82
2022/01/19 10:34:56;;;;;;;30.13;17.33;;;3.20;99.90;;;;;;10008017;29;20402;-86
2022/01/19 10:40:20;;;;;;;28.43;14.70;;;3.30;99.90;;;;;;10011130;29;20239;-88
2022/01/19 10:45:42;;;;;;;25.47;13.43;;;3.40;99.90;;;;;;10013279;29;20259;-74
2022/01/19 10:51:16;;;;;;;20.30;11.90;;;3.50;99.90;;;;;;10027537;29;20245;-76
2022/01/19 10:56:38;;;;;;;31.83;16.90;;;3.50;99.90;;;;;;10030516;29;20306;-76
2022/01/19 11:02:02;;;;;;;22.10;13.17;;;3.60;99.90;;;;;;9992454;29;20237;-79
2022/01/19 11:07:25;;;;;;;44.53;13.63;;;3.70;99.90;;;;;;10016258;29;20215;-82
2022/01/19 11:12:49;;;;;;;29.40;12.63;;;4.20;99.90;;;;;;10030336;29;20240;-82
2022/01/19 11:18:12;;;;;;;25.60;13.30;;;4.30;99.90;;;;;;10037941;29;20315;-75
2022/01/19 11:23:50;;;;;;;20.27;14.10;;;4.40;99.90;;;;;;10025380;29;20315;-77
2022/01/19 11:29:19;;;;;;;25.53;15.63;;;4.10;99.90;;;;;;10040555;29;20212;-76
2022/01/19 11:34:48;;;;;;;22.73;15.30;;;4.00;99.90;;;;;;10041878;29;20437;-76
2022/01/19 11:40:18;;;;;;;32.93;19.60;;;3.90;99.90;;;;;;10024717;29;20208;-76
2022/01/19 11:45:40;;;;;;;31.40;18.97;;;3.90;99.90;;;;;;10040223;29;20271;-79
2022/01/19 11:51:26;;;;;;;26.07;16.37;;;3.90;99.90;;;;;;10040572;29;20201;-91
2022/01/19 11:57:01;;;;;;;23.43;15.60;;;4.00;99.90;;;;;;9999776;29;20213;-76
2022/01/19 12:02:36;;;;;;;18.53;12.87;;;4.00;99.90;;;;;;10002558;29;20218;-81
2022/01/19 12:08:27;;;;;;;27.80;15.50;;;4.10;99.90;;;;;;10021279;29;20391;-76
2022/01/19 12:14:07;;;;;;;33.80;20.80;;;4.20;99.90;;;;;;10002166;29;20566;-83
2022/01/19 12:19:38;;;;;;;52.03;25.77;;;4.30;99.90;;;;;;10001934;29;20201;-86
2022/01/19 12:25:03;;;;;;;50.53;24.57;;;4.20;99.90;;;;;;10031096;29;20559;-76
2022/01/19 12:30:27;;;;;;;32.23;17.67;;;4.10;99.90;;;;;;10001074;29;20231;-75
2022/01/19 12:35:50;;;;;;;37.07;21.10;;;4.00;99.90;;;;;;9986927;29;20297;-78
2022/01/19 12:41:12;;;;;;;110.73;28.87;;;4.00;99.90;;;;;;10000590;29;20213;-79
2022/01/19 12:46:37;;;;;;;221.80;43.27;;;4.00;99.90;;;;;;9999774;29;20332;-75
2022/01/19 12:52:00;;;;;;;35.60;18.70;;;4.00;99.90;;;;;;9984258;29;20236;-78
2022/01/19 12:57:22;;;;;;;24.30;14.50;;;3.90;99.90;;;;;;10005807;29;20283;-86
2022/01/19 13:02:45;;;;;;;23.57;13.90;;;3.90;99.90;;;;;;10026887;29;20228;-80
2022/01/19 13:08:08;;;;;;;32.67;17.37;;;3.80;99.90;;;;;;10037370;29;20200;-79
2022/01/19 13:13:30;;;;;;;37.67;17.80;;;3.80;99.90;;;;;;10052862;24;20247;-75
2022/01/19 13:18:58;;;;;;;33.43;17.60;;;3.70;99.90;;;;;;10033193;29;20207;-81
2022/01/19 13:24:30;;;;;;;29.33;16.70;;;3.70;99.90;;;;;;10030313;29;20253;-74
2022/01/19 13:29:52;;;;;;;24.30;14.07;;;3.70;99.90;;;;;;10008769;29;20222;-78
2022/01/19 13:35:15;;;;;;;22.47;13.80;;;3.60;99.90;;;;;;9988148;29;20275;-77
2022/01/19 13:40:37;;;;;;;25.47;12.87;;;3.60;99.90;;;;;;9991264;29;20208;-74
2022/01/19 13:46:12;;;;;;;24.90;13.53;;;3.70;99.90;;;;;;10040451;29;20243;-76
2022/01/19 13:51:37;;;;;;;28.70;12.77;;;3.60;99.90;;;;;;10025097;29;20205;-75
2022/01/19 13:56:59;;;;;;;39.63;18.13;;;3.60;99.90;;;;;;10017978;29;20212;-76
2022/01/19 14:02:23;;;;;;;39.27;18.93;;;3.60;99.90;;;;;;9998707;29;20235;-78
2022/01/19 14:07:46;;;;;;;29.73;15.10;;;3.60;99.90;;;;;;9985921;29;20306;-78
2022/01/19 14:13:40;;;;;;;33.20;17.60;;;3.50;99.90;;;;;;10035931;29;20273;-78
2022/01/19 14:19:15;;;;;;;28.00;14.10;;;3.50;99.90;;;;;;9991264;29;20547;-77
2022/01/19 14:24:46;;;;;;;45.47;21.97;;;3.40;99.90;;;;;;10007312;29;20277;-75
2022/01/19 14:30:32;;;;;;;53.90;27.13;;;3.40;99.90;;;;;;10006125;29;20209;-76
2022/01/19 14:35:57;;;;;;;45.90;25.47;;;3.40;99.90;;;;;;10005664;29;20503;-76
2022/01/19 14:41:29;;;;;;;37.33;20.30;;;3.30;99.90;;;;;;9994140;29;20213;-76
2022/01/19 14:47:05;;;;;;;43.47;22.40;;;3.10;99.90;;;;;;10006813;29;20254;-76
2022/01/19 14:52:26;;;;;;;44.20;21.40;;;3.10;99.70;;;;;;9974974;29;20300;-75
2022/01/19 14:57:50;;;;;;;46.50;20.60;;;3.10;99.90;;;;;;10028561;29;20208;-77
2022/01/19 15:03:13;;;;;;;37.60;18.60;;;3.10;99.90;;;;;;10025629;29;20247;-81
2022/01/19 15:08:35;;;;;;;53.40;28.93;;;2.90;99.90;;;;;;10024556;29;20204;-81
2022/01/19 15:13:57;;;;;;;39.17;22.40;;;2.80;99.90;;;;;;10004519;29;20283;-75
2022/01/19 15:19:19;;;;;;;48.10;21.73;;;2.80;99.90;;;;;;10012992;29;20237;-76
2022/01/19 15:24:41;;;;;;;46.47;23.17;;;2.80;99.90;;;;;;10042284;29;20243;-74
2022/01/19 15:30:06;;;;;;;36.87;19.93;;;2.70;99.90;;;;;;10046934;29;20223;-77
2022/01/19 15:35:29;;;;;;;36.57;20.87;;;2.60;99.90;;;;;;10028043;29;20226;-81
2022/01/19 15:40:50;;;;;;;44.50;19.63;;;2.50;99.90;;;;;;10027735;29;20211;-82
2022/01/19 15:46:12;;;;;;;43.13;23.83;;;2.50;99.90;;;;;;10044124;29;20245;-78
2022/01/19 15:51:53;;;;;;;42.67;23.17;;;2.50;99.90;;;;;;10038962;29;20528;-84
2022/01/19 15:57:15;;;;;;;43.83;23.17;;;2.50;99.90;;;;;;9996723;29;20274;-77
2022/01/19 16:02:37;;;;;;;36.80;21.17;;;2.50;99.90;;;;;;10025417;29;20223;-84
2022/01/19 16:08:00;;;;;;;55.53;26.20;;;2.50;99.90;;;;;;10028765;29;20223;-83
2022/01/19 16:13:23;;;;;;;66.73;31.33;;;2.40;99.90;;;;;;10029532;29;20243;-87
2022/01/19 16:18:45;;;;;;;50.20;28.97;;;2.50;99.90;;;;;;10012292;29;20279;-83
2022/01/19 16:30:07;;;;;;;65.77;33.80;;;2.30;99.90;;;;;;10029786;29;20229;-82
2022/01/19 16:35:30;;;;;;;48.50;24.60;;;2.30;99.90;;;;;;10033551;29;20200;-86
2022/01/19 16:40:56;;;;;;;41.57;22.50;;;2.30;99.90;;;;;;10017496;29;20203;-84
2022/01/19 16:46:22;;;;;;;43.73;22.83;;;2.40;99.90;;;;;;10047152;29;20256;-82
2022/01/19 16:51:45;;;;;;;38.60;21.00;;;2.30;99.90;;;;;;10031232;29;20206;-78
2022/01/19 16:57:06;;;;;;;43.10;23.13;;;2.20;99.90;;;;;;9995554;29;20196;-78
2022/01/19 17:02:28;;;;;;;45.83;22.53;;;2.20;99.90;;;;;;10025760;29;20238;-79
2022/01/19 17:07:51;;;;;;;45.67;25.20;;;2.10;99.90;;;;;;10042169;29;20397;-78
2022/01/19 17:13:27;;;;;;;47.73;25.47;;;2.20;99.90;;;;;;9998428;29;20498;-85
2022/01/19 17:18:50;;;;;;;43.43;24.77;;;2.20;99.90;;;;;;9988169;29;20216;-85
2022/01/19 17:24:12;;;;;;;48.63;24.90;;;2.20;99.90;;;;;;9975837;29;20466;-83
2022/01/19 17:29:34;;;;;;;42.17;23.70;;;2.20;99.90;;;;;;9990957;29;20200;-82
2022/01/19 17:34:59;;;;;;;38.53;21.70;;;2.20;99.90;;;;;;9963123;29;20421;-85
2022/01/19 17:40:24;;;;;;;38.07;22.80;;;2.20;99.90;;;;;;9989097;29;20204;-82
2022/01/19 17:46:06;;;;;;;38.67;23.27;;;2.10;99.90;;;;;;9977316;29;20313;-83
2022/01/19 17:51:45;;;;;;;36.83;21.90;;;2.20;99.90;;;;;;9971952;29;20398;-85
2022/01/19 17:57:08;;;;;;;43.00;22.93;;;2.30;99.90;;;;;;10031110;29;20203;-84
2022/01/19 18:02:30;;;;;;;39.90;19.73;;;2.40;99.90;;;;;;10058286;29;20221;-77
2022/01/19 18:07:52;;;;;;;39.23;22.43;;;2.40;99.90;;;;;;10055370;29;20207;-79
2022/01/19 18:13:14;;;;;;;46.00;24.73;;;2.40;99.90;;;;;;10019103;29;20556;-82
2022/01/19 18:18:36;;;;;;;41.17;22.57;;;2.40;99.90;;;;;;10011187;29;20212;-81
2022/01/19 18:23:59;;;;;;;31.40;21.27;;;2.40;99.90;;;;;;10021964;29;20233;-78
2022/01/19 18:29:20;;;;;;;39.23;21.87;;;2.40;99.90;;;;;;10049073;29;20206;-80
2022/01/19 18:34:43;;;;;;;34.70;18.63;;;2.50;99.90;;;;;;10031705;29;20207;-85
2022/01/19 18:40:08;;;;;;;37.17;20.00;;;2.60;99.90;;;;;;10048204;29;20199;-86
2022/01/19 18:45:30;;;;;;;34.53;19.87;;;2.60;99.90;;;;;;10049412;29;20231;-79
2022/01/19 18:50:52;;;;;;;32.00;18.80;;;2.70;99.90;;;;;;10033092;29;20208;-86
2022/01/19 18:56:14;;;;;;;33.87;18.60;;;2.90;99.90;;;;;;10046544;29;20279;-86
2022/01/19 19:01:36;;;;;;;30.80;17.83;;;2.90;99.90;;;;;;9993005;29;20199;-82
2022/01/19 19:06:59;;;;;;;28.23;16.97;;;2.90;99.90;;;;;;9988826;29;20255;-86
2022/01/19 19:12:21;;;;;;;31.73;17.17;;;2.90;99.90;;;;;;10032732;29;20521;-83
2022/01/19 19:17:47;;;;;;;35.23;17.50;;;3.00;99.90;;;;;;9990310;29;20260;-81
2022/01/19 19:23:09;;;;;;;27.80;15.50;;;3.00;99.90;;;;;;10008343;29;20220;-79
2022/01/19 19:28:31;;;;;;;40.20;19.57;;;3.00;99.90;;;;;;10063695;24;20243;-81
2022/01/19 19:33:53;;;;;;;33.10;17.73;;;3.00;99.90;;;;;;10046075;29;20240;-82
2022/01/19 19:39:15;;;;;;;31.27;18.43;;;2.90;99.90;;;;;;10016678;29;20264;-82
2022/01/19 19:44:37;;;;;;;28.43;16.03;;;3.00;99.90;;;;;;10016413;29;20241;-85
2022/01/19 19:50:02;;;;;;;22.23;15.00;;;3.10;99.90;;;;;;10029332;29;20208;-85
2022/01/19 19:55:27;;;;;;;19.63;12.93;;;3.00;99.90;;;;;;9989762;29;20210;-85
2022/01/19 20:00:50;;;;;;;21.80;12.27;;;3.00;99.90;;;;;;10038509;29;20206;-81
2022/01/19 20:06:12;;;;;;;16.90;10.87;;;3.00;99.90;;;;;;10028637;29;20258;-79
2022/01/19 20:11:36;;;;;;;20.10;12.93;;;3.00;99.90;;;;;;10027186;29;20434;-77
2022/01/19 20:16:58;;;;;;;16.07;11.77;;;3.00;99.90;;;;;;10015559;29;20209;-80
2022/01/19 20:22:20;;;;;;;16.20;11.37;;;2.90;99.90;;;;;;10015868;29;20195;-81
2022/01/19 20:27:42;;;;;;;17.90;12.50;;;2.90;99.90;;;;;;10031347;29;20580;-81
2022/01/19 20:33:11;;;;;;;16.87;12.73;;;3.00;99.90;;;;;;10044064;29;20266;-78
2022/01/19 20:38:38;;;;;;;17.50;13.73;;;2.90;99.90;;;;;;10015199;29;20211;-82
2022/01/19 20:44:00;;;;;;;20.47;15.80;;;2.90;99.90;;;;;;10029722;29;20230;-78
2022/01/19 20:49:22;;;;;;;22.17;15.90;;;2.80;99.90;;;;;;10042159;29;20271;-80
2022/01/19 20:54:45;;;;;;;21.97;15.93;;;2.70;99.90;;;;;;10019423;29;20200;-77
2022/01/19 21:00:18;;;;;;;23.53;14.90;;;2.60;99.90;;;;;;10015290;29;20255;-79
2022/01/19 21:05:40;;;;;;;23.23;15.13;;;2.50;99.90;;;;;;10043142;29;20234;-77
2022/01/19 21:11:06;;;;;;;22.00;14.50;;;2.40;99.90;;;;;;10017952;29;20219;-77
2022/01/19 21:16:28;;;;;;;22.70;16.70;;;2.40;99.90;;;;;;10028865;29;20280;-77
2022/01/19 21:21:51;;;;;;;26.00;16.80;;;2.40;99.90;;;;;;10041218;29;20209;-83
2022/01/19 21:33:28;;;;;;;27.07;17.47;;;2.30;99.90;;;;;;9979084;29;20212;-77
2022/01/19 21:38:52;;;;;;;31.77;20.00;;;2.30;99.90;;;;;;9952574;29;20223;-83
2022/01/19 21:44:15;;;;;;;27.50;18.00;;;2.30;99.90;;;;;;9978139;29;20253;-78
2022/01/19 21:49:40;;;;;;;28.43;19.53;;;2.20;99.90;;;;;;9966544;29;20232;-85
2022/01/19 21:55:16;;;;;;;24.73;17.17;;;2.30;99.90;;;;;;10055220;24;20204;31
2022/01/19 22:00:37;;;;;;;25.63;16.20;;;2.30;99.90;;;;;;9956410;29;20208;-82
2022/01/19 22:06:00;;;;;;;28.00;18.27;;;2.30;99.90;;;;;;9951572;29;20556;-80
2022/01/19 22:11:22;;;;;;;28.90;17.73;;;2.20;99.90;;;;;;9915760;30;20265;-80
2022/01/19 22:17:30;;;;;;;24.83;16.83;;;2.30;99.90;;;;;;9928337;30;20503;-78
2022/01/19 22:22:52;;;;;;;28.07;17.53;;;2.30;99.90;;;;;;9899647;30;20280;-80
2022/01/19 22:28:14;;;;;;;32.13;19.47;;;2.30;99.90;;;;;;9912292;30;20299;-83
2022/01/19 22:39:34;;;;;;;22.80;15.03;;;2.20;99.90;;;;;;10296965;24;20251;-85
2022/01/19 22:44:56;;;;;;;19.90;13.50;;;2.20;99.90;;;;;;10047119;29;20585;-79
2022/01/19 22:50:19;;;;;;;18.73;13.80;;;2.20;99.90;;;;;;10033847;29;20397;-86
2022/01/19 22:55:41;;;;;;;18.13;13.33;;;2.20;99.90;;;;;;10028471;29;20207;-88
2022/01/19 23:01:03;;;;;;;20.53;14.50;;;2.20;99.90;;;;;;10132303;24;20244;-81
2022/01/19 23:06:27;;;;;;;15.90;13.23;;;2.20;99.90;;;;;;10034558;29;20226;-81
2022/01/19 23:18:26;;;;;;;20.13;13.07;;;2.20;99.90;;;;;;10029864;29;20211;-84
2022/01/19 23:23:49;;;;;;;17.37;12.07;;;2.10;99.90;;;;;;10017385;29;20235;-80
2022/01/19 23:29:15;;;;;;;16.73;12.60;;;2.30;99.90;;;;;;10046585;29;20230;-78
2022/01/19 23:34:39;;;;;;;15.93;11.93;;;2.30;99.90;;;;;;10046279;29;20362;-86
2022/01/19 23:51:21;;;;;;;14.70;11.10;;;2.40;99.90;;;;;;10017180;29;20397;-85
